createdAt,value
2022-09-03T00:02:27.745Z,20.79
2022-09-03T00:05:05.941Z,20.85
2022-09-03T00:07:47.181Z,20.72
2022-09-03T00:10:24.335Z,20.74
2022-09-03T00:13:00.273Z,20.57
2022-09-03T00:15:33.779Z,20.69
2022-09-03T00:18:07.245Z,20.58
2022-09-03T00:20:41.435Z,20.63
2022-09-03T00:23:18.432Z,20.37
2022-09-03T00:25:52.175Z,20.53
2022-09-03T00:28:27.334Z,20.49
2022-09-03T00:31:08.659Z,20.46
2022-09-03T00:33:40.982Z,20.43
2022-09-03T00:36:17.226Z,20.41
2022-09-03T00:38:46.083Z,20.50
2022-09-03T00:41:33.727Z,20.45
2022-09-03T00:44:32.073Z,20.51
2022-09-03T00:47:11.378Z,20.33
2022-09-03T00:49:56.004Z,20.29
2022-09-03T00:52:40.184Z,20.19
2022-09-03T00:55:16.876Z,20.16
2022-09-03T00:57:59.759Z,20.22
2022-09-03T01:00:29.175Z,20.20
2022-09-03T01:03:08.766Z,20.17
2022-09-03T01:05:56.492Z,20.06
2022-09-03T01:08:49.115Z,20.00
2022-09-03T01:11:23.134Z,20.07
2022-09-03T01:14:06.471Z,19.98
2022-09-03T01:16:42.729Z,19.98
2022-09-03T01:19:45.873Z,20.01
2022-09-03T01:22:44.872Z,19.88
2022-09-03T01:25:24.500Z,19.71
2022-09-03T01:28:13.471Z,19.59
2022-09-03T01:30:49.297Z,19.63
2022-09-03T01:33:27.072Z,19.61
2022-09-03T01:36:08.911Z,19.58
2022-09-03T01:38:44.150Z,19.55
2022-09-03T01:41:51.204Z,19.66
2022-09-03T01:44:37.458Z,19.65
2022-09-03T01:47:18.547Z,19.59
2022-09-03T01:49:57.845Z,19.57
2022-09-03T01:52:41.543Z,19.46
2022-09-03T01:55:26.021Z,19.29
2022-09-03T01:58:03.442Z,19.47
2022-09-03T02:00:35.961Z,19.23
2022-09-03T02:03:09.222Z,19.24
2022-09-03T02:05:37.590Z,19.05
2022-09-03T02:08:08.313Z,19.16
2022-09-03T02:10:42.454Z,19.17
2022-09-03T02:13:16.762Z,19.17
2022-09-03T02:15:49.057Z,19.16
2022-09-03T02:18:22.438Z,19.17
2022-09-03T02:20:53.745Z,18.90
2022-09-03T02:23:24.669Z,18.88
2022-09-03T02:25:59.403Z,18.99
2022-09-03T02:28:28.362Z,18.91
2022-09-03T02:30:58.371Z,18.89
2022-09-03T02:33:27.722Z,18.76
2022-09-03T02:35:56.395Z,18.80
2022-09-03T02:38:27.148Z,18.70
2022-09-03T02:40:56.354Z,18.71
2022-09-03T02:43:28.726Z,18.67
2022-09-03T02:46:03.727Z,18.59
2022-09-03T02:48:32.380Z,18.59
2022-09-03T02:51:01.062Z,18.54
2022-09-03T02:53:29.452Z,18.26
2022-09-03T02:56:01.148Z,18.51
2022-09-03T02:58:31.546Z,18.39
2022-09-03T03:01:01.430Z,18.28
2022-09-03T03:03:30.544Z,18.07
2022-09-03T03:06:02.150Z,18.29
2022-09-03T03:08:32.931Z,18.30
2022-09-03T03:11:02.119Z,18.45
2022-09-03T03:13:32.211Z,18.38
2022-09-03T03:16:06.235Z,18.11
2022-09-03T03:18:35.039Z,18.31
2022-09-03T03:21:08.309Z,18.31
2022-09-03T03:23:37.912Z,18.26
2022-09-03T03:26:09.699Z,18.15
2022-09-03T03:28:38.902Z,18.14
2022-09-03T03:31:09.530Z,18.24
2022-09-03T03:33:37.722Z,18.04
2022-09-03T03:36:08.068Z,18.24
2022-09-03T03:38:36.987Z,17.92
2022-09-03T03:41:10.396Z,17.89
2022-09-03T03:43:39.337Z,17.63
2022-09-03T03:46:09.172Z,17.95
2022-09-03T03:48:38.291Z,18.11
2022-09-03T03:51:09.278Z,17.95
2022-09-03T03:53:39.952Z,17.97
2022-09-03T03:56:10.725Z,17.98
2022-09-03T03:58:42.439Z,18.06
2022-09-03T04:01:14.487Z,18.02
2022-09-03T04:03:43.983Z,18.17
2022-09-03T04:06:15.735Z,18.22
2022-09-03T04:08:46.373Z,18.11
2022-09-03T04:11:18.073Z,18.09
2022-09-03T04:13:48.080Z,18.19
2022-09-03T04:16:20.313Z,18.16
2022-09-03T04:18:50.181Z,17.99
2022-09-03T04:21:20.830Z,17.95
2022-09-03T04:23:50.677Z,18.12
2022-09-03T04:26:22.248Z,18.14
2022-09-03T04:28:51.274Z,18.05
2022-09-03T04:31:22.534Z,17.76
2022-09-03T04:33:51.225Z,18.03
2022-09-03T04:36:21.457Z,17.95
2022-09-03T04:38:51.856Z,17.82
2022-09-03T04:41:23.043Z,17.98
2022-09-03T04:43:52.987Z,17.57
2022-09-03T04:46:26.057Z,17.85
2022-09-03T04:48:57.016Z,17.93
2022-09-03T04:51:28.264Z,17.92
2022-09-03T04:54:00.138Z,17.77
2022-09-03T04:56:31.455Z,17.68
2022-09-03T04:59:02.161Z,17.77
2022-09-03T05:01:33.679Z,17.69
2022-09-03T05:04:02.457Z,17.62
2022-09-03T05:06:32.560Z,17.59
2022-09-03T05:09:01.957Z,17.60
2022-09-03T05:11:31.068Z,17.27
2022-09-03T05:14:01.082Z,17.32
2022-09-03T05:16:31.450Z,17.29
2022-09-03T05:19:01.960Z,17.38
2022-09-03T05:21:31.190Z,17.27
2022-09-03T05:24:03.004Z,17.48
2022-09-03T05:26:33.881Z,17.45
2022-09-03T05:29:05.887Z,17.60
2022-09-03T05:31:38.914Z,17.64
2022-09-03T05:34:10.037Z,17.65
2022-09-03T05:36:40.296Z,17.75
2022-09-03T05:39:08.618Z,17.75
2022-09-03T05:41:37.055Z,17.68
2022-09-03T05:44:06.086Z,17.81
2022-09-03T05:46:36.970Z,17.96
2022-09-03T05:49:07.597Z,17.92
2022-09-03T05:51:37.234Z,17.94
2022-09-03T05:54:05.664Z,18.01
2022-09-03T05:56:35.780Z,17.65
2022-09-03T05:59:09.186Z,18.27
2022-09-03T06:01:41.399Z,18.64
2022-09-03T06:04:19.295Z,18.37
2022-09-03T06:06:49.267Z,18.69
2022-09-03T06:09:20.193Z,18.66
2022-09-03T06:11:50.089Z,18.88
2022-09-03T06:14:18.836Z,19.02
2022-09-03T06:16:50.055Z,18.95
2022-09-03T06:19:19.316Z,19.16
2022-09-03T06:21:48.488Z,19.26
2022-09-03T06:24:18.396Z,19.28
2022-09-03T06:26:46.774Z,19.58
2022-09-03T06:29:15.709Z,19.53
2022-09-03T06:31:44.256Z,19.52
2022-09-03T06:34:14.028Z,19.90
2022-09-03T06:36:42.304Z,19.91
2022-09-03T06:39:10.613Z,20.05
2022-09-03T06:41:40.021Z,20.35
2022-09-03T06:44:12.344Z,20.34
2022-09-03T06:46:43.118Z,19.96
2022-09-03T06:49:14.088Z,20.56
2022-09-03T06:51:43.655Z,20.73
2022-09-03T06:54:13.530Z,20.67
2022-09-03T06:56:42.713Z,20.16
2022-09-03T06:59:13.703Z,20.45
2022-09-03T07:01:45.530Z,20.64
2022-09-03T07:04:20.090Z,20.57
2022-09-03T07:06:49.047Z,20.83
2022-09-03T07:09:19.022Z,20.60
2022-09-03T07:11:49.231Z,20.83
2022-09-03T07:14:19.468Z,20.71
2022-09-03T07:16:48.902Z,20.68
2022-09-03T07:19:18.950Z,20.50
2022-09-03T07:21:50.547Z,20.35
2022-09-03T07:24:22.118Z,20.79
2022-09-03T07:26:51.128Z,20.51
2022-09-03T07:29:21.556Z,20.96
2022-09-03T07:31:52.592Z,21.16
2022-09-03T07:34:26.542Z,21.29
2022-09-03T07:36:55.415Z,21.00
2022-09-03T07:39:23.805Z,21.52
2022-09-03T07:41:52.306Z,21.43
2022-09-03T07:44:20.896Z,21.60
2022-09-03T07:46:50.870Z,21.43
2022-09-03T07:49:20.277Z,21.29
2022-09-03T07:51:54.016Z,21.48
2022-09-03T07:54:24.108Z,21.80
2022-09-03T07:56:52.699Z,22.07
2022-09-03T07:59:23.051Z,21.67
2022-09-03T08:01:52.267Z,21.88
2022-09-03T08:04:22.058Z,21.97
2022-09-03T08:06:55.644Z,22.15
2022-09-03T08:09:24.473Z,21.70
2022-09-03T08:11:52.889Z,22.03
2022-09-03T08:14:22.051Z,22.55
2022-09-03T08:16:50.434Z,22.82
2022-09-03T08:19:20.505Z,22.97
2022-09-03T08:21:53.502Z,22.03
2022-09-03T08:24:24.692Z,22.48
2022-09-03T08:26:54.864Z,22.21
2022-09-03T08:29:23.281Z,22.75
2022-09-03T08:31:52.166Z,22.68
2022-09-03T08:34:21.425Z,22.65
2022-09-03T08:36:52.384Z,22.53
2022-09-03T08:39:23.434Z,23.06
2022-09-03T08:42:44.256Z,23.41
2022-09-03T08:45:18.750Z,23.03
2022-09-03T08:47:51.588Z,22.97
2022-09-03T08:50:26.979Z,23.42
2022-09-03T08:53:00.333Z,23.75
2022-09-03T08:55:31.040Z,23.54
2022-09-03T08:58:05.989Z,23.45
2022-09-03T09:00:46.655Z,23.74
2022-09-03T09:03:31.307Z,23.71
2022-09-03T09:06:10.114Z,23.36
2022-09-03T09:08:53.230Z,23.81
2022-09-03T09:11:41.942Z,23.22
2022-09-03T09:14:20.910Z,23.72
2022-09-03T09:17:02.809Z,23.96
2022-09-03T09:19:43.680Z,23.87
2022-09-03T09:22:17.934Z,23.93
2022-09-03T09:24:49.554Z,23.88
2022-09-03T09:27:21.159Z,23.78
2022-09-03T09:29:52.440Z,23.76
2022-09-03T09:32:21.951Z,23.88
2022-09-03T09:34:52.535Z,24.01
2022-09-03T09:37:22.062Z,24.08
2022-09-03T09:40:04.852Z,24.51
2022-09-03T09:42:33.267Z,24.48
2022-09-03T09:45:12.149Z,24.44
2022-09-03T09:47:41.619Z,24.28
2022-09-03T09:50:27.327Z,24.10
2022-09-03T09:53:08.746Z,24.38
2022-09-03T09:55:50.175Z,24.20
2022-09-03T09:58:23.541Z,24.32
2022-09-03T10:01:13.118Z,24.15
2022-09-03T10:03:51.113Z,24.15
2022-09-03T10:06:37.300Z,24.54
2022-09-03T10:09:11.344Z,24.66
2022-09-03T10:11:45.479Z,23.74
2022-09-03T10:14:24.568Z,24.50
2022-09-03T10:17:02.595Z,24.50
2022-09-03T10:19:42.517Z,24.59
2022-09-03T10:22:18.986Z,24.61
2022-09-03T10:24:59.474Z,24.24
2022-09-03T10:27:29.555Z,24.75
2022-09-03T10:30:00.623Z,24.81
2022-09-03T10:32:41.852Z,24.96
2022-09-03T10:35:23.056Z,24.85
2022-09-03T10:38:06.817Z,25.32
2022-09-03T10:40:41.471Z,25.60
2022-09-03T10:43:41.831Z,25.74
2022-09-03T10:46:21.892Z,25.86
2022-09-03T10:49:19.949Z,25.53
2022-09-03T10:51:58.917Z,25.59
2022-09-03T10:54:49.692Z,25.88
2022-09-03T10:57:33.533Z,26.26
2022-09-03T11:00:11.114Z,26.45
2022-09-03T11:03:30.950Z,26.58
2022-09-03T11:06:06.366Z,26.98
2022-09-03T11:08:40.443Z,26.86
2022-09-03T11:11:15.555Z,26.08
2022-09-03T11:13:51.190Z,26.42
2022-09-03T11:16:25.706Z,25.92
2022-09-03T11:18:59.030Z,26.49
2022-09-03T11:21:30.018Z,26.19
2022-09-03T11:24:10.221Z,26.04
2022-09-03T11:26:39.700Z,26.33
2022-09-03T11:29:14.083Z,26.75
2022-09-03T11:31:58.858Z,26.75
2022-09-03T11:34:45.536Z,26.55
2022-09-03T11:37:23.676Z,26.50
2022-09-03T11:39:58.960Z,26.44
2022-09-03T11:42:33.891Z,26.17
2022-09-03T11:45:24.699Z,26.45
2022-09-03T11:47:55.396Z,26.16
2022-09-03T11:50:28.309Z,26.23
2022-09-03T11:53:10.988Z,26.25
2022-09-03T11:55:55.678Z,26.74
2022-09-03T11:58:30.250Z,26.53
2022-09-03T12:01:01.437Z,26.53
2022-09-03T12:03:45.257Z,26.63
2022-09-03T12:06:56.515Z,26.72
2022-09-03T12:09:51.921Z,27.17
2022-09-03T12:12:46.583Z,26.93
2022-09-03T12:15:32.847Z,26.98
2022-09-03T12:18:20.229Z,26.71
2022-09-03T12:21:03.694Z,26.68
2022-09-03T12:23:34.903Z,26.86
2022-09-03T12:26:09.470Z,26.91
2022-09-03T12:28:44.034Z,27.16
2022-09-03T12:31:25.597Z,27.36
2022-09-03T12:33:59.154Z,27.43
2022-09-03T12:36:39.373Z,26.64
2022-09-03T12:39:12.626Z,27.20
2022-09-03T12:42:01.376Z,26.72
2022-09-03T12:44:31.822Z,26.56
2022-09-03T12:50:07.209Z,26.67
2022-09-03T12:52:40.361Z,26.81
2022-09-03T12:55:20.529Z,26.75
2022-09-03T12:57:57.818Z,26.67
2022-09-03T13:00:33.122Z,26.64
2022-09-03T13:03:05.211Z,26.57
2022-09-03T13:05:37.579Z,26.75
2022-09-03T13:08:09.820Z,26.92
2022-09-03T13:10:41.977Z,27.00
2022-09-03T13:13:24.091Z,27.19
2022-09-03T13:16:38.265Z,27.32
2022-09-03T13:19:14.965Z,27.56
2022-09-03T13:21:50.558Z,27.73
2022-09-03T13:24:44.422Z,27.97
2022-09-03T13:27:21.646Z,27.90
2022-09-03T13:30:05.917Z,28.10
2022-09-03T13:32:43.363Z,28.26
2022-09-03T13:35:19.131Z,28.21
2022-09-03T13:37:54.413Z,28.55
2022-09-03T13:40:33.339Z,28.67
2022-09-03T13:43:07.533Z,28.89
2022-09-03T13:45:42.995Z,29.08
2022-09-03T13:48:35.713Z,28.58
2022-09-03T13:51:14.556Z,29.18
2022-09-03T13:53:53.367Z,29.01
2022-09-03T13:56:36.791Z,29.05
2022-09-03T13:59:13.453Z,29.27
2022-09-03T14:02:01.778Z,29.31
2022-09-03T14:04:44.969Z,29.14
2022-09-03T14:07:23.245Z,28.77
2022-09-03T14:10:01.287Z,28.60
2022-09-03T14:12:46.759Z,29.13
2022-09-03T14:15:22.975Z,29.40
2022-09-03T14:18:01.430Z,29.60
2022-09-03T14:20:35.327Z,29.14
2022-09-03T14:23:19.461Z,28.15
2022-09-03T14:25:55.059Z,27.91
2022-09-03T14:28:34.738Z,27.70
2022-09-03T14:31:14.665Z,27.71
2022-09-03T14:33:56.503Z,27.79
2022-09-03T14:36:33.438Z,28.43
2022-09-03T14:39:26.710Z,28.09
2022-09-03T14:42:37.867Z,28.29
2022-09-03T14:45:41.662Z,28.06
2022-09-03T14:48:38.529Z,27.62
2022-09-03T14:51:24.702Z,27.77
2022-09-03T14:54:38.051Z,27.57
2022-09-03T14:57:23.852Z,27.71
2022-09-03T15:00:11.991Z,28.14
2022-09-03T15:03:20.220Z,28.45
2022-09-03T15:06:04.820Z,28.75
2022-09-03T15:08:56.017Z,28.10
2022-09-03T15:11:29.523Z,27.86
2022-09-03T15:14:09.454Z,27.58
2022-09-03T15:16:49.141Z,27.81
2022-09-03T15:19:53.829Z,27.78
2022-09-03T15:22:50.157Z,27.56
2022-09-03T15:25:30.036Z,27.79
2022-09-03T15:28:12.850Z,27.39
2022-09-03T15:30:49.781Z,27.60
2022-09-03T15:33:31.797Z,27.79
2022-09-03T15:36:19.310Z,27.67
2022-09-03T15:38:56.547Z,27.54
2022-09-03T15:41:41.880Z,27.78
2022-09-03T15:44:19.203Z,28.07
2022-09-03T15:46:58.154Z,27.96
2022-09-03T15:49:46.406Z,27.86
2022-09-03T15:52:31.538Z,27.82
2022-09-03T15:55:09.529Z,27.76
2022-09-03T15:57:49.221Z,28.07
2022-09-03T16:00:22.622Z,27.85
2022-09-03T16:03:00.098Z,27.82
2022-09-03T16:05:41.415Z,27.55
2022-09-03T16:08:21.136Z,28.00
2022-09-03T16:11:02.923Z,27.94
2022-09-03T16:13:47.421Z,27.90
2022-09-03T16:16:22.283Z,28.07
2022-09-03T16:19:05.596Z,28.06
2022-09-03T16:21:40.656Z,27.78
2022-09-03T16:24:19.106Z,27.50
2022-09-03T16:26:56.634Z,27.57
2022-09-03T16:29:28.791Z,27.32
2022-09-03T16:32:17.048Z,27.35
2022-09-03T16:34:57.548Z,27.51
2022-09-03T16:37:34.639Z,27.26
2022-09-03T16:40:24.451Z,27.19
2022-09-03T16:43:13.420Z,27.21
2022-09-03T16:46:05.292Z,26.91
2022-09-03T16:48:46.374Z,26.93
2022-09-03T16:51:22.201Z,26.85
2022-09-03T16:54:14.266Z,26.82
2022-09-03T16:56:57.504Z,26.88
2022-09-03T16:59:56.727Z,26.92
2022-09-03T17:03:26.460Z,27.09
2022-09-03T17:06:51.849Z,26.93
2022-09-03T17:09:43.068Z,26.82
2022-09-03T17:12:26.162Z,26.69
2022-09-03T17:15:23.864Z,26.84
2022-09-03T17:18:12.382Z,26.95
2022-09-03T17:20:52.691Z,26.98
2022-09-03T17:23:53.674Z,26.82
2022-09-03T17:26:29.943Z,26.68
2022-09-03T17:29:14.710Z,26.73
2022-09-03T17:31:52.154Z,26.62
2022-09-03T17:34:38.017Z,26.80
2022-09-03T17:37:21.470Z,26.69
2022-09-03T17:40:33.976Z,26.77
2022-09-03T17:43:10.087Z,26.68
2022-09-03T17:45:49.823Z,26.67
2022-09-03T17:48:40.267Z,26.68
2022-09-03T17:51:19.671Z,26.50
2022-09-03T17:53:53.668Z,26.50
2022-09-03T17:56:28.187Z,26.53
2022-09-03T17:59:10.577Z,26.42
2022-09-03T18:01:53.667Z,26.41
2022-09-03T18:04:39.526Z,26.36
2022-09-03T18:07:23.665Z,26.30
2022-09-03T18:10:05.337Z,26.18
2022-09-03T18:12:55.388Z,26.24
2022-09-03T18:15:37.791Z,26.08
2022-09-03T18:18:18.332Z,26.01
2022-09-03T18:21:24.045Z,25.97
2022-09-03T18:24:19.895Z,26.03
2022-09-03T18:27:11.882Z,26.01
2022-09-03T18:30:05.612Z,26.04
2022-09-03T18:32:51.461Z,25.95
2022-09-03T18:35:38.686Z,25.99
2022-09-03T18:38:24.614Z,25.97
2022-09-03T18:41:19.475Z,25.78
2022-09-03T18:44:16.917Z,25.89
2022-09-03T18:50:29.923Z,26.12
2022-09-03T18:53:26.512Z,26.20
2022-09-03T18:56:30.508Z,26.30
2022-09-03T18:59:36.634Z,26.38
2022-09-03T19:02:31.234Z,26.50
2022-09-03T19:05:36.497Z,26.48
2022-09-03T19:08:32.639Z,26.51
2022-09-03T19:11:26.892Z,26.68
2022-09-03T19:14:15.623Z,26.71
2022-09-03T19:17:12.391Z,26.78
2022-09-03T19:20:21.401Z,26.84
2022-09-03T19:23:07.421Z,26.76
2022-09-03T19:25:55.618Z,26.86
2022-09-03T19:28:44.143Z,26.94
2022-09-03T19:32:02.755Z,26.95
2022-09-03T19:35:17.963Z,27.02
2022-09-03T19:38:19.408Z,27.05
2022-09-03T19:41:20.387Z,27.09
2022-09-03T19:44:22.349Z,27.06
2022-09-03T19:47:10.790Z,27.02
2022-09-03T19:50:12.469Z,26.91
2022-09-03T19:53:05.886Z,26.70
2022-09-03T19:55:58.162Z,26.51
2022-09-03T19:58:50.152Z,26.41
2022-09-03T20:01:37.694Z,26.42
2022-09-03T20:04:32.132Z,26.43
2022-09-03T20:07:22.161Z,26.16
2022-09-03T20:10:10.202Z,26.06
2022-09-03T20:12:45.526Z,25.84
2022-09-03T20:15:15.634Z,25.78
2022-09-03T20:18:02.237Z,25.65
2022-09-03T20:20:41.801Z,25.75
2022-09-03T20:23:20.980Z,25.78
2022-09-03T20:26:10.300Z,25.90
2022-09-03T20:29:04.975Z,25.74
2022-09-03T20:31:49.347Z,25.87
2022-09-03T20:34:36.501Z,25.98
2022-09-03T20:37:24.495Z,25.89
2022-09-03T20:40:10.033Z,25.91
2022-09-03T20:42:58.042Z,25.84
2022-09-03T20:45:33.863Z,25.77
2022-09-03T20:48:17.082Z,25.77
2022-09-03T20:50:59.278Z,25.71
2022-09-03T20:53:54.835Z,25.98
2022-09-03T20:56:33.517Z,25.98
2022-09-03T20:59:09.565Z,25.87
2022-09-03T21:01:53.213Z,25.47
2022-09-03T21:04:44.078Z,25.40
2022-09-03T21:07:22.016Z,25.49
2022-09-03T21:10:03.591Z,25.39
2022-09-03T21:12:41.259Z,25.29
2022-09-03T21:15:21.147Z,25.33
2022-09-03T21:18:03.194Z,25.12
2022-09-03T21:20:43.337Z,25.21
2022-09-03T21:23:22.225Z,25.26
2022-09-03T21:26:01.604Z,25.15
2022-09-03T21:28:38.530Z,25.02
2022-09-03T21:31:19.609Z,25.06
2022-09-03T21:33:50.637Z,25.07
2022-09-03T21:36:31.446Z,25.05
2022-09-03T21:39:07.161Z,24.97
2022-09-03T21:41:40.426Z,24.81
2022-09-03T21:44:14.558Z,24.63
2022-09-03T21:46:51.822Z,24.50
2022-09-03T21:49:26.750Z,24.40
2022-09-03T21:52:02.232Z,24.47
2022-09-03T21:54:33.713Z,24.43
2022-09-03T21:57:22.178Z,24.34
2022-09-03T22:00:17.659Z,24.24
2022-09-03T22:02:47.263Z,23.96
2022-09-03T22:05:18.522Z,24.00
2022-09-03T22:08:06.065Z,24.02
2022-09-03T22:10:41.546Z,24.12
2022-09-03T22:13:21.640Z,24.17
2022-09-03T22:15:52.079Z,24.19
2022-09-03T22:18:29.068Z,24.21
2022-09-03T22:21:04.806Z,23.93
2022-09-03T22:23:45.018Z,24.04
2022-09-03T22:26:27.000Z,23.98
2022-09-03T22:29:08.038Z,23.87
2022-09-03T22:31:53.572Z,23.71
2022-09-03T22:34:49.379Z,23.22
2022-09-03T22:37:30.914Z,23.35
2022-09-03T22:40:13.114Z,23.19
2022-09-03T22:43:01.840Z,23.24
2022-09-03T22:46:04.351Z,23.19
2022-09-03T22:49:06.482Z,23.34
2022-09-03T22:51:54.691Z,23.47
2022-09-03T22:54:47.191Z,23.35
2022-09-03T22:57:19.453Z,23.29
2022-09-03T22:59:58.405Z,23.38
2022-09-03T23:02:29.783Z,23.29
2022-09-03T23:05:06.838Z,23.25
2022-09-03T23:07:52.696Z,23.43
2022-09-03T23:10:29.168Z,23.67
2022-09-03T23:13:09.319Z,23.82
2022-09-03T23:15:41.607Z,23.89
2022-09-03T23:18:17.619Z,24.02
2022-09-03T23:20:56.774Z,24.13
2022-09-03T23:23:31.114Z,24.05
2022-09-03T23:26:13.346Z,24.13
2022-09-03T23:28:50.806Z,24.15
2022-09-03T23:31:23.334Z,24.12
2022-09-03T23:33:56.102Z,24.09
2022-09-03T23:37:01.331Z,24.10
2022-09-03T23:39:49.203Z,23.94
2022-09-03T23:42:29.708Z,24.03
2022-09-03T23:45:15.661Z,23.82
2022-09-03T23:47:54.606Z,23.56
2022-09-03T23:50:33.303Z,23.63
2022-09-03T23:53:20.635Z,23.38
2022-09-03T23:56:05.166Z,23.23
2022-09-03T23:58:52.272Z,23.56
